BIHR weather

Hvolsvöllur Airport
Hvolsvöllur, Southern Region, Iceland

Public forecast

Using degrees Celsius for public forecast. Weather courtesy of forecast.io.

METAR (pilot weather report)

Closest report is Vestmannaeyjar Airport, 19.8 nm (36.7 km) S. Retrieved 2019/04/25 12:00 UTC (12 minutes ago):

BIVM 251200Z 10022KT 9999 FEW030 10/08 Q0998

TAF (pilot weather forecast)

Closest forecast is Reykjavik Airport, 50.1 nm (92.8 km) WNW. Retrieved 2019/04/25 12:00 UTC (12 minutes ago):

TAF BIRK 251057Z 2512/2612 12016KT 9999 SCT020 BKN050 TX14/2515Z TN06/2611Z BECMG 2515/2518 12006KT FEW035 BECMG 2520/2523 11016KT 5000 RADZ BR SCT010 OVC020 BECMG 2605/2608 9999 -SHRA BKN020